createdAt,value
2023-01-19T00:02:39.269Z,99730.44
2023-01-19T00:07:35.661Z,99731.53
2023-01-19T00:12:32.573Z,99727.47
2023-01-19T00:17:28.963Z,99721.03
2023-01-19T00:22:25.441Z,99719.94
2023-01-19T00:27:21.855Z,99720.47
2023-01-19T00:32:19.710Z,99716.16
2023-01-19T00:37:17.296Z,99718.81
2023-01-19T00:42:32.200Z,99713.41
2023-01-19T00:47:28.581Z,99707.50
2023-01-19T00:52:25.042Z,99711.75
2023-01-19T00:57:21.533Z,99720.34
2023-01-19T01:02:18.190Z,99721.97
2023-01-19T01:07:14.659Z,99727.88
2023-01-19T01:12:11.065Z,99731.06
2023-01-19T01:17:11.298Z,99736.44
2023-01-19T01:22:08.817Z,99730.53
2023-01-19T01:27:05.240Z,99727.81
2023-01-19T01:32:02.144Z,99726.22
2023-01-19T01:36:58.563Z,99712.75
2023-01-19T01:41:56.006Z,99722.38
2023-01-19T01:46:54.090Z,99718.06
2023-01-19T01:51:54.187Z,99720.72
2023-01-19T01:56:53.570Z,99718.56
2023-01-19T02:02:08.538Z,99716.41
2023-01-19T02:07:24.869Z,99717.19
2023-01-19T02:12:40.780Z,99710.97
2023-01-19T02:17:37.148Z,99716.66
2023-01-19T02:22:40.748Z,99708.81
2023-01-19T02:27:37.717Z,99700.22
2023-01-19T02:32:34.095Z,99703.94
2023-01-19T02:37:36.522Z,99704.22
2023-01-19T02:42:38.635Z,99705.25
2023-01-19T02:47:39.835Z,99707.16
2023-01-19T02:52:36.261Z,99716.59
2023-01-19T02:58:06.439Z,99709.31
2023-01-19T03:03:17.695Z,99709.31
2023-01-19T03:08:42.052Z,99706.56
2023-01-19T03:13:51.974Z,99693.06
2023-01-19T03:18:54.646Z,99699.25
2023-01-19T03:23:52.230Z,99705.44
2023-01-19T03:28:49.979Z,99701.69
2023-01-19T03:33:51.435Z,99708.38
2023-01-19T03:38:49.872Z,99698.94
2023-01-19T03:43:49.027Z,99708.34
2023-01-19T03:48:49.655Z,99701.38
2023-01-19T03:53:46.717Z,99714.00
2023-01-19T03:58:43.200Z,99712.38
2023-01-19T04:03:39.956Z,99717.75
2023-01-19T04:08:36.711Z,99715.59
2023-01-19T04:13:33.146Z,99706.97
2023-01-19T04:18:32.365Z,99715.00
2023-01-19T04:23:30.116Z,99709.13
2023-01-19T04:28:27.235Z,99708.03
2023-01-19T04:33:23.719Z,99704.81
2023-01-19T04:38:20.624Z,99710.19
2023-01-19T04:43:17.396Z,99714.22
2023-01-19T04:48:14.537Z,99709.63
2023-01-19T04:53:12.291Z,99718.00
2023-01-19T04:58:08.712Z,99720.44
2023-01-19T05:03:05.616Z,99722.03
2023-01-19T05:08:02.267Z,99728.22
2023-01-19T05:12:59.047Z,99736.56
2023-01-19T05:17:57.928Z,99741.41
2023-01-19T05:22:54.378Z,99735.44
2023-01-19T05:27:50.834Z,99743.00
2023-01-19T05:32:47.243Z,99757.00
2023-01-19T05:37:44.306Z,99743.00
2023-01-19T05:42:40.740Z,99744.63
2023-01-19T05:47:37.191Z,99757.56
2023-01-19T05:52:33.600Z,99764.31
2023-01-19T05:57:29.992Z,99750.06
2023-01-19T06:02:28.674Z,99761.41
2023-01-19T06:07:27.535Z,99753.28
2023-01-19T06:12:25.298Z,99758.13
2023-01-19T06:17:21.731Z,99766.72
2023-01-19T06:22:18.114Z,99757.78
2023-01-19T06:27:14.557Z,99764.06
2023-01-19T06:32:11.160Z,99767.59
2023-01-19T06:37:07.568Z,99761.97
2023-01-19T06:42:04.072Z,99770.53
2023-01-19T06:47:15.594Z,99780.78
2023-01-19T06:52:15.815Z,99793.16
2023-01-19T06:57:13.274Z,99788.81
2023-01-19T07:02:26.207Z,99807.69
2023-01-19T07:07:24.505Z,99806.59
2023-01-19T07:12:21.956Z,99818.41
2023-01-19T07:17:18.751Z,99831.31
2023-01-19T07:22:15.177Z,99834.00
2023-01-19T07:27:11.608Z,99885.72
2023-01-19T07:32:08.515Z,99850.19
2023-01-19T07:37:04.978Z,99865.00
2023-01-19T07:42:01.414Z,99876.06
2023-01-19T07:46:57.787Z,99874.94
2023-01-19T07:51:56.270Z,99885.22
2023-01-19T07:56:55.832Z,99889.50
2023-01-19T08:01:54.017Z,99903.25
2023-01-19T08:06:50.723Z,99908.34
2023-01-19T08:11:47.220Z,99913.19
2023-01-19T08:16:43.648Z,99912.66
2023-01-19T08:21:40.062Z,99926.88
2023-01-19T08:26:36.550Z,99903.44
2023-01-19T08:31:33.226Z,99921.19
2023-01-19T08:36:30.318Z,99921.44
2023-01-19T08:41:26.808Z,99924.66
2023-01-19T08:46:23.222Z,99937.31
2023-01-19T08:51:19.780Z,99939.97
2023-01-19T08:56:16.288Z,99932.91
2023-01-19T09:01:14.924Z,99945.28
2023-01-19T09:06:13.150Z,99948.25
2023-01-19T09:11:13.717Z,99950.69
2023-01-19T09:16:12.538Z,99951.75
2023-01-19T09:21:09.315Z,99951.75
2023-01-19T09:26:06.169Z,99964.19
2023-01-19T09:31:07.799Z,99965.28
2023-01-19T09:36:04.293Z,99972.13
2023-01-19T09:41:01.224Z,99987.00
2023-01-19T09:46:00.535Z,99987.56
2023-01-19T09:51:01.905Z,100001.56
2023-01-19T09:55:58.329Z,100001.50
2023-01-19T10:01:08.284Z,100005.53
2023-01-19T10:06:09.185Z,100006.84
2023-01-19T10:11:18.708Z,100021.38
2023-01-19T10:16:33.776Z,100016.44
2023-01-19T10:21:44.218Z,100012.94
2023-01-19T10:26:45.622Z,100014.78
2023-01-19T10:31:44.742Z,100021.78
2023-01-19T10:36:41.209Z,100020.69
2023-01-19T10:41:44.944Z,100019.00
2023-01-19T10:46:46.364Z,100028.47
2023-01-19T10:51:49.338Z,100032.56
2023-01-19T10:56:52.705Z,100047.16
2023-01-19T11:02:22.664Z,100037.66
2023-01-19T11:07:27.832Z,100045.41
2023-01-19T11:12:24.394Z,100054.63
2023-01-19T11:17:25.144Z,100048.19
2023-01-19T11:22:27.299Z,100050.88
2023-01-19T11:27:23.798Z,100047.56
2023-01-19T11:32:22.418Z,100048.75
2023-01-19T11:37:18.794Z,100063.34
2023-01-19T11:42:16.474Z,100057.97
2023-01-19T11:47:18.508Z,100057.94
2023-01-19T11:52:35.971Z,100060.59
2023-01-19T11:57:32.416Z,100069.22
2023-01-19T12:02:41.963Z,100063.88
2023-01-19T12:07:38.645Z,100066.25
2023-01-19T12:12:39.899Z,100078.34
2023-01-19T12:17:45.331Z,100071.81
2023-01-19T12:22:50.611Z,100079.59
2023-01-19T12:27:49.354Z,100079.81
2023-01-19T12:32:45.782Z,100081.94
2023-01-19T12:37:43.175Z,100087.84
2023-01-19T12:42:46.557Z,100083.88
2023-01-19T12:47:52.882Z,100100.31
2023-01-19T12:53:02.802Z,100094.44
2023-01-19T12:58:06.903Z,100099.25
2023-01-19T13:03:05.921Z,100112.25
2023-01-19T13:08:02.346Z,100109.63
2023-01-19T13:13:23.020Z,100114.44
2023-01-19T13:18:24.915Z,100119.56
2023-01-19T13:23:28.469Z,100118.75
2023-01-19T13:28:46.189Z,100120.91
2023-01-19T13:33:50.776Z,100122.50
2023-01-19T13:38:49.946Z,100126.22
2023-01-19T13:43:47.644Z,100131.06
2023-01-19T13:49:12.770Z,100135.88
2023-01-19T13:54:16.827Z,100136.44
2023-01-19T13:59:13.755Z,100145.06
2023-01-19T14:04:28.515Z,100145.56
2023-01-19T14:09:24.958Z,100149.81
2023-01-19T14:14:23.599Z,100158.44
2023-01-19T14:19:20.153Z,100159.97
2023-01-19T14:24:20.142Z,100163.09
2023-01-19T14:29:19.229Z,100173.28
2023-01-19T14:34:35.535Z,100176.56
2023-01-19T14:39:34.610Z,100178.25
2023-01-19T14:44:35.614Z,100185.81
2023-01-19T14:49:36.576Z,100194.72
2023-01-19T14:54:39.867Z,100202.47
2023-01-19T14:59:36.329Z,100208.09
2023-01-19T15:04:32.777Z,100208.50
2023-01-19T15:09:29.247Z,100216.69
2023-01-19T15:14:27.732Z,100220.53
2023-01-19T15:19:24.116Z,100235.69
2023-01-19T15:24:20.576Z,100236.56
2023-01-19T15:29:32.399Z,100249.28
2023-01-19T15:34:28.860Z,100248.19
2023-01-19T15:39:26.080Z,100259.56
2023-01-19T15:44:22.482Z,100266.03
2023-01-19T15:49:18.935Z,100266.84
2023-01-19T15:54:16.361Z,100275.75
2023-01-19T15:59:13.000Z,100291.44
2023-01-19T16:04:11.710Z,100294.94
2023-01-19T16:09:08.104Z,100303.56
2023-01-19T16:14:04.478Z,100308.72
2023-01-19T16:19:01.107Z,100317.31
2023-01-19T16:23:57.569Z,100306.53
2023-01-19T16:29:01.357Z,100308.16
2023-01-19T16:33:57.811Z,100316.25
2023-01-19T16:38:54.719Z,100321.13
2023-01-19T16:43:53.094Z,100336.22
2023-01-19T16:48:51.057Z,100336.75
2023-01-19T16:53:50.105Z,100342.13
2023-01-19T16:58:46.632Z,100340.00
2023-01-19T17:03:43.729Z,100354.00
2023-01-19T17:08:41.261Z,100361.53
2023-01-19T17:13:37.657Z,100362.09
2023-01-19T17:18:35.457Z,100373.91
2023-01-19T17:23:33.088Z,100382.00
2023-01-19T17:28:29.495Z,100385.25
2023-01-19T17:33:25.954Z,100391.13
2023-01-19T17:38:22.535Z,100398.72
2023-01-19T17:43:18.983Z,100406.78
2023-01-19T17:48:17.322Z,100411.09
2023-01-19T17:53:13.785Z,100413.25
2023-01-19T17:58:10.183Z,100406.22
2023-01-19T18:03:06.601Z,100402.44
2023-01-19T18:08:03.028Z,100406.53
2023-01-19T18:12:59.480Z,100408.16
2023-01-19T18:17:55.893Z,100414.34
2023-01-19T18:22:52.407Z,100416.25
2023-01-19T18:27:48.789Z,100424.88
2023-01-19T18:32:46.727Z,100422.41
2023-01-19T18:37:43.105Z,100430.19
2023-01-19T18:42:39.535Z,100430.97
2023-01-19T18:47:35.983Z,100427.72
2023-01-19T18:52:33.276Z,100433.09
2023-01-19T18:57:29.700Z,100422.34
2023-01-19T19:02:26.131Z,100426.94
2023-01-19T19:07:22.564Z,100421.84
2023-01-19T19:12:19.022Z,100425.59
2023-01-19T19:17:15.418Z,100430.44
2023-01-19T19:22:12.645Z,100433.66
2023-01-19T19:27:13.860Z,100441.50
2023-01-19T19:32:10.267Z,100434.78
2023-01-19T19:37:06.690Z,100445.25
2023-01-19T19:42:03.078Z,100455.75
2023-01-19T19:46:59.569Z,100462.75
2023-01-19T19:51:56.027Z,100462.19
2023-01-19T19:56:53.529Z,100469.72
2023-01-19T20:01:53.605Z,100473.50
2023-01-19T20:06:50.856Z,100472.13
2023-01-19T20:11:48.977Z,100480.94
2023-01-19T20:16:45.446Z,100484.16
2023-01-19T20:21:42.325Z,100487.63
2023-01-19T20:26:41.317Z,100499.94
2023-01-19T20:31:42.043Z,100501.28
2023-01-19T20:36:38.637Z,100501.25
2023-01-19T20:41:37.254Z,100511.34
2023-01-19T20:46:33.621Z,100521.63
2023-01-19T20:51:30.101Z,100529.63
2023-01-19T20:56:26.490Z,100528.03
2023-01-19T21:01:24.732Z,100530.69
2023-01-19T21:06:21.959Z,100540.34
2023-01-19T21:11:20.952Z,100546.22
2023-01-19T21:16:17.451Z,100557.47
2023-01-19T21:21:29.032Z,100567.34
2023-01-19T21:26:29.582Z,100584.81
2023-01-19T21:31:27.980Z,100584.81
2023-01-19T21:36:25.095Z,100593.41
2023-01-19T21:41:21.516Z,100591.25
2023-01-19T21:46:21.297Z,100604.69
2023-01-19T21:51:17.664Z,100613.78
2023-01-19T21:56:15.322Z,100623.66
2023-01-19T22:01:13.633Z,100626.09
2023-01-19T22:06:12.924Z,100637.34
2023-01-19T22:11:11.675Z,100644.56
2023-01-19T22:16:10.770Z,100649.13
2023-01-19T22:21:15.615Z,100659.38
2023-01-19T22:26:12.094Z,100662.06
2023-01-19T22:31:14.053Z,100661.03
2023-01-19T22:36:22.390Z,100676.06
2023-01-19T22:41:28.762Z,100670.13
2023-01-19T22:46:30.502Z,100685.28
2023-01-19T22:51:28.527Z,100684.16
2023-01-19T22:56:27.298Z,100685.63
2023-01-19T23:01:27.710Z,100691.53
2023-01-19T23:06:29.387Z,100696.91
2023-01-19T23:11:29.301Z,100705.53
2023-01-19T23:16:25.896Z,100692.56
2023-01-19T23:21:24.512Z,100709.44
2023-01-19T23:26:21.858Z,100717.78
2023-01-19T23:31:22.388Z,100716.78
2023-01-19T23:36:20.140Z,100733.41
2023-01-19T23:41:16.754Z,100730.16
2023-01-19T23:46:14.080Z,100747.34
2023-01-19T23:51:14.729Z,100745.78
2023-01-19T23:56:14.804Z,100753.78
